createdAt,value
2023-03-26T00:02:56.041Z,3.80
2023-03-26T00:08:17.932Z,5.10
2023-03-26T00:13:41.576Z,10.30
2023-03-26T00:19:04.198Z,17.80
2023-03-26T00:24:29.695Z,12.00
2023-03-26T00:29:51.115Z,20.80
2023-03-26T00:35:13.370Z,17.70
2023-03-26T00:40:36.890Z,14.40
2023-03-26T00:45:59.413Z,16.60
2023-03-26T00:51:21.753Z,17.00
2023-03-26T00:56:43.415Z,15.20
2023-03-26T01:02:06.855Z,12.10
2023-03-26T01:07:29.157Z,21.40
2023-03-26T01:12:50.958Z,20.90
2023-03-26T01:18:14.293Z,20.90
2023-03-26T01:23:44.751Z,17.90
2023-03-26T01:29:09.989Z,13.60
2023-03-26T01:34:43.062Z,11.30
2023-03-26T01:40:10.311Z,8.20
2023-03-26T01:45:35.057Z,7.80
2023-03-26T01:50:58.981Z,11.20
2023-03-26T01:56:51.078Z,8.70
2023-03-26T02:02:15.495Z,9.40
2023-03-26T02:08:00.463Z,10.50
2023-03-26T02:13:22.744Z,8.30
2023-03-26T02:18:45.863Z,7.30
2023-03-26T02:24:08.657Z,8.30
2023-03-26T02:29:31.690Z,8.10
2023-03-26T02:34:53.822Z,7.00
2023-03-26T02:40:18.375Z,10.40
2023-03-26T02:45:40.376Z,11.00
2023-03-26T02:51:03.168Z,8.70
2023-03-26T02:56:51.962Z,7.20
2023-03-26T03:02:34.394Z,8.10
2023-03-26T03:08:09.964Z,12.20
2023-03-26T03:13:32.954Z,12.00
2023-03-26T03:18:58.128Z,10.20
2023-03-26T03:24:27.280Z,9.10
2023-03-26T03:29:49.187Z,13.60
2023-03-26T03:35:41.716Z,8.80
2023-03-26T03:41:03.862Z,10.00
2023-03-26T03:46:26.682Z,10.30
2023-03-26T03:51:48.830Z,5.70
2023-03-26T03:57:33.394Z,7.10
2023-03-26T04:02:59.014Z,6.60
2023-03-26T04:08:22.899Z,7.20
2023-03-26T04:13:47.337Z,9.40
2023-03-26T04:19:22.997Z,8.40
2023-03-26T04:24:45.751Z,8.70
2023-03-26T04:35:52.218Z,8.80
2023-03-26T04:41:15.928Z,7.80
2023-03-26T04:46:53.128Z,6.90
2023-03-26T04:52:21.253Z,10.00
2023-03-26T04:58:06.077Z,9.10
2023-03-26T05:03:45.995Z,9.30
2023-03-26T05:09:10.922Z,9.50
2023-03-26T05:14:52.322Z,6.50
2023-03-26T05:20:24.456Z,6.00
2023-03-26T05:25:47.271Z,6.70
2023-03-26T05:31:17.026Z,5.70
2023-03-26T05:36:41.083Z,5.70
2023-03-26T05:42:22.080Z,5.50
2023-03-26T05:48:01.842Z,5.00
2023-03-26T05:53:25.620Z,8.10
2023-03-26T05:59:08.210Z,4.70
2023-03-26T06:04:51.171Z,6.10
2023-03-26T06:10:23.916Z,4.00
2023-03-26T06:15:46.343Z,4.20
2023-03-26T06:21:19.480Z,5.70
2023-03-26T06:26:48.634Z,6.90
2023-03-26T06:32:43.221Z,31.20
2023-03-26T06:38:11.310Z,12.80
2023-03-26T06:43:34.007Z,5.30
2023-03-26T06:49:27.512Z,9.00
2023-03-26T06:55:10.619Z,13.00
2023-03-26T07:00:54.952Z,7.20
2023-03-26T07:06:36.413Z,7.90
2023-03-26T07:12:19.826Z,4.60
2023-03-26T07:18:11.516Z,6.60
2023-03-26T07:23:35.600Z,6.50
2023-03-26T07:29:47.457Z,11.80
2023-03-26T07:35:49.367Z,7.70
2023-03-26T07:41:59.873Z,9.70
2023-03-26T07:47:42.514Z,14.10
2023-03-26T07:53:15.731Z,4.80
2023-03-26T07:59:19.336Z,6.90
2023-03-26T08:05:19.072Z,8.20
2023-03-26T08:11:23.954Z,3.80
2023-03-26T08:16:48.503Z,5.50
2023-03-26T08:22:26.455Z,6.70
2023-03-26T08:28:05.263Z,4.40
2023-03-26T08:33:28.101Z,4.80
2023-03-26T08:38:52.633Z,8.00
2023-03-26T08:44:36.846Z,7.80
2023-03-26T08:50:22.081Z,5.60
2023-03-26T08:55:56.725Z,6.50
2023-03-26T09:01:41.281Z,5.40
2023-03-26T09:07:36.076Z,4.00
2023-03-26T09:13:08.378Z,4.60
2023-03-26T09:18:36.275Z,9.80
2023-03-26T09:24:20.009Z,10.50
2023-03-26T09:30:00.607Z,10.50
2023-03-26T09:35:54.097Z,16.20
2023-03-26T09:41:21.792Z,29.00
2023-03-26T09:46:49.337Z,9.70
2023-03-26T09:52:24.115Z,7.20
2023-03-26T09:57:58.474Z,4.60
2023-03-26T10:03:48.511Z,4.00
2023-03-26T10:09:42.856Z,5.70
2023-03-26T10:15:42.818Z,8.90
2023-03-26T10:21:27.525Z,4.80
2023-03-26T10:27:10.182Z,3.50
2023-03-26T10:32:44.389Z,5.70
2023-03-26T10:38:16.157Z,16.00
2023-03-26T10:44:08.802Z,12.30
2023-03-26T10:49:52.909Z,6.90
2023-03-26T10:55:35.109Z,4.80
2023-03-26T11:01:02.256Z,9.80
2023-03-26T11:06:57.105Z,4.00
2023-03-26T11:12:37.507Z,5.00
2023-03-26T11:18:16.119Z,3.70
2023-03-26T11:29:50.127Z,3.60
2023-03-26T11:35:39.746Z,5.40
2023-03-26T11:41:04.082Z,4.70
2023-03-26T11:46:44.444Z,4.70
2023-03-26T11:52:07.776Z,5.40
2023-03-26T11:57:33.462Z,5.10
2023-03-26T12:03:00.421Z,4.80
2023-03-26T12:08:39.900Z,7.00
2023-03-26T12:14:05.904Z,8.50
2023-03-26T12:19:44.369Z,5.00
2023-03-26T12:25:18.527Z,4.30
2023-03-26T12:30:42.445Z,6.80
2023-03-26T12:36:26.862Z,5.60
2023-03-26T12:44:44.260Z,3.50
2023-03-26T12:47:58.180Z,2.90
2023-03-26T12:53:26.732Z,4.70
2023-03-26T12:59:11.856Z,7.00
2023-03-26T13:05:05.508Z,6.40
2023-03-26T13:10:55.769Z,4.70
2023-03-26T13:16:36.835Z,2.80
2023-03-26T13:22:24.718Z,3.70
2023-03-26T13:27:49.671Z,5.00
2023-03-26T13:33:37.481Z,11.30
2023-03-26T13:39:34.712Z,3.40
2023-03-26T13:45:19.572Z,5.10
2023-03-26T13:50:44.880Z,4.10
2023-03-26T13:56:09.659Z,5.50
2023-03-26T14:01:35.517Z,5.10
2023-03-26T14:07:12.490Z,9.50
2023-03-26T14:12:49.127Z,6.90
2023-03-26T14:18:36.647Z,8.00
2023-03-26T14:24:19.348Z,11.70
2023-03-26T14:29:57.825Z,5.30
2023-03-26T14:35:42.368Z,5.20
2023-03-26T14:41:22.163Z,9.30
2023-03-26T14:47:06.659Z,5.20
2023-03-26T14:52:48.854Z,6.70
2023-03-26T14:58:35.067Z,7.30
2023-03-26T15:04:23.660Z,7.60
2023-03-26T15:10:19.552Z,7.90
2023-03-26T15:16:13.002Z,11.60
2023-03-26T15:21:57.091Z,16.00
2023-03-26T15:27:58.553Z,6.10
2023-03-26T15:33:41.441Z,7.30
2023-03-26T15:39:09.496Z,6.90
2023-03-26T15:45:05.847Z,4.90
2023-03-26T15:51:06.608Z,5.70
2023-03-26T15:56:58.135Z,6.70
2023-03-26T16:02:42.810Z,11.80
2023-03-26T16:08:25.861Z,15.10
2023-03-26T16:14:12.669Z,20.60
2023-03-26T16:19:36.626Z,12.20
2023-03-26T16:25:26.924Z,10.80
2023-03-26T16:31:36.373Z,19.70
2023-03-26T16:36:54.455Z,14.90
2023-03-26T16:42:16.313Z,132.60
2023-03-26T16:47:51.932Z,30.90
2023-03-26T16:53:41.990Z,48.60
2023-03-26T16:59:45.459Z,34.10
2023-03-26T17:05:56.745Z,37.40
2023-03-26T17:11:26.918Z,35.10
2023-03-26T17:17:04.828Z,23.80
2023-03-26T17:22:48.410Z,42.10
2023-03-26T17:28:41.548Z,55.10
2023-03-26T17:34:47.248Z,43.50
2023-03-26T17:40:43.583Z,61.80
2023-03-26T17:46:25.103Z,66.50
2023-03-26T17:51:58.116Z,66.50
2023-03-26T17:57:23.604Z,50.30
2023-03-26T18:02:56.394Z,26.70
2023-03-26T18:08:28.142Z,30.40
2023-03-26T18:14:28.429Z,32.50
2023-03-26T18:19:54.165Z,26.90
2023-03-26T18:25:25.582Z,17.30
2023-03-26T18:30:51.519Z,17.10
2023-03-26T18:41:42.013Z,14.40
2023-03-26T18:47:06.578Z,10.90
2023-03-26T18:52:30.593Z,13.20
2023-03-26T18:57:52.716Z,13.30
2023-03-26T19:03:21.222Z,7.50
2023-03-26T19:08:45.138Z,10.70
2023-03-26T19:14:20.179Z,10.10
2023-03-26T19:19:43.039Z,9.00
2023-03-26T19:25:05.282Z,7.30
2023-03-26T19:30:34.355Z,8.70
2023-03-26T19:36:05.055Z,8.60
2023-03-26T19:41:32.691Z,13.30
2023-03-26T19:47:03.181Z,8.50
2023-03-26T19:52:25.988Z,13.40
2023-03-26T19:57:49.556Z,10.50
2023-03-26T20:03:11.836Z,10.40
2023-03-26T20:08:34.153Z,12.20
2023-03-26T20:13:57.242Z,15.20
2023-03-26T20:19:19.380Z,18.90
2023-03-26T20:24:44.625Z,18.10
2023-03-26T20:30:08.054Z,14.00
2023-03-26T20:35:35.580Z,10.40
2023-03-26T20:41:01.877Z,22.90
2023-03-26T20:46:30.949Z,36.70
2023-03-26T20:51:54.273Z,33.40
2023-03-26T20:57:19.281Z,21.40
2023-03-26T21:02:45.637Z,27.30
2023-03-26T21:08:16.169Z,16.80
2023-03-26T21:13:49.464Z,16.40
2023-03-26T21:19:12.565Z,16.30
2023-03-26T21:24:49.828Z,18.40
2023-03-26T21:30:17.103Z,10.90
2023-03-26T21:35:40.679Z,17.50
2023-03-26T21:41:03.773Z,19.60
2023-03-26T21:46:26.321Z,16.80
2023-03-26T21:51:49.032Z,13.90
2023-03-26T21:57:35.871Z,28.50
2023-03-26T22:03:23.186Z,87.50
2023-03-26T22:08:46.659Z,81.80
2023-03-26T22:14:16.366Z,52.30
2023-03-26T22:19:38.266Z,38.50
2023-03-26T22:25:00.229Z,34.20
2023-03-26T22:30:22.012Z,16.40
2023-03-26T22:35:44.741Z,17.10
2023-03-26T22:41:07.729Z,57.90
2023-03-26T22:46:31.170Z,58.90
2023-03-26T22:51:53.080Z,43.80
2023-03-26T22:57:16.167Z,37.30
2023-03-26T23:02:38.715Z,26.30
2023-03-26T23:08:00.467Z,22.80
2023-03-26T23:13:22.804Z,15.70
2023-03-26T23:18:44.793Z,29.50
2023-03-26T23:24:06.964Z,24.70
2023-03-26T23:29:30.399Z,35.00
2023-03-26T23:34:52.775Z,25.30
2023-03-26T23:40:15.201Z,19.00
2023-03-26T23:45:37.772Z,16.80
2023-03-26T23:51:04.437Z,23.00
2023-03-26T23:56:27.902Z,26.40
